Coral Bay — D5FR8 — position and weather

sailwx.info

Track history (hours):
 
Tides and Currents Weather Stations Pressure Air Temp Water Temp Dewpoint Dewpoint Depression Visibility Wind Speed Wind Dir Waves Ship Positions

Coral Bay

Last reported at 2018-Feb-17 21:23 UTC. Time now 2018-Feb-19 05:59 UTC.
Position N 27°40' W 094°22'.

Length 212 m; draft 9 m.

Type: Ship (hazmat cat D). MMSI: 636017218.

Date/timePositionNaut miles runAvg speedWind from/ knotsBaromVisibWave heightAir tempDewpointWater temp
2018-Feb-17 21:23N 27°40' W 094°22'919.0
2018-Feb-17 20:54N 27°48' W 094°25'7119.1
2018-Feb-17 17:12N 28°48' W 095°09'13 1.5
2018-Feb-17 08:38N 28°57' W 095°20'0 0.0
2018-Feb-17 08:14N 28°57' W 095°20'0 0.0
2018-Feb-17 07:59N 28°57' W 095°20'0 0.0
2018-Feb-17 07:29N 28°57' W 095°20'0 0.0
2018-Feb-17 03:26N 28°57' W 095°20'0 0.0
2018-Feb-17 02:47N 28°57' W 095°20'0 0.0
2018-Feb-17 02:29N 28°57' W 095°20'0 0.0
2018-Feb-17 01:56N 28°57' W 095°20'0 0.0
2018-Feb-17 01:29N 28°57' W 095°20'0 0.0
2018-Feb-17 00:53N 28°57' W 095°20'0 0.0
2018-Feb-17 00:29N 28°57' W 095°20'0 0.0
2018-Feb-16 23:59N 28°57' W 095°20'0 0.0
2018-Feb-16 23:14N 28°57' W 095°20'0 0.0
2018-Feb-16 22:53N 28°57' W 095°20'0 0.0
2018-Feb-16 14:17N 28°57' W 095°20'0 0.0
2018-Feb-16 12:41N 28°57' W 095°20'0 0.0
2018-Feb-16 08:23N 28°57' W 095°20'0 0.0
2018-Feb-16 07:56N 28°57' W 095°20'0 0.0
2018-Feb-16 07:26N 28°57' W 095°20'0 0.0
2018-Feb-16 06:59N 28°57' W 095°20'0 0.0
2018-Feb-16 06:29N 28°57' W 095°20'0 0.0
2018-Feb-16 05:59N 28°57' W 095°20'0 0.0
2018-Feb-16 05:29N 28°57' W 095°20'0 0.0
2018-Feb-16 04:53N 28°57' W 095°20'0 0.0
2018-Feb-16 04:29N 28°57' W 095°20'0 0.0
2018-Feb-16 03:59N 28°57' W 095°20'0 0.0
2018-Feb-16 03:29N 28°57' W 095°20'0 0.0
2018-Feb-16 02:59N 28°57' W 095°20'0 0.0
2018-Feb-16 02:29N 28°57' W 095°20'0 0.0
2018-Feb-16 01:59N 28°57' W 095°20'0 0.0
2018-Feb-16 01:26N 28°57' W 095°20'0 0.0
2018-Feb-16 00:59N 28°57' W 095°20'0 0.0
2018-Feb-16 00:20N 28°57' W 095°20'0 0.0
2018-Feb-15 22:59N 28°57' W 095°20'0 0.0
2018-Feb-15 22:29N 28°57' W 095°20'4 1.0
2018-Feb-15 18:34N 28°54' W 095°16'1 3.4
2018-Feb-15 18:19N 28°53' W 095°16'2 5.6
2018-Feb-15 17:54N 28°52' W 095°13'4 0.6
2018-Feb-15 11:00N 28°50' W 095°09'2010.1
2018-Feb-15 09:01N 28°34' W 094°55'113.2
2018-Feb-15 08:57N 28°34' W 094°54'713.2
2018-Feb-15 08:26N 28°28' W 094°49'1813.1
2018-Feb-15 07:02N 28°15' W 094°35'113.1
2018-Feb-15 06:59N 28°14' W 094°34'713.4
2018-Feb-15 06:27N 28°09' W 094°29'  
Track history (hours):
 
Tides and Currents Weather Stations Pressure Air Temp Water Temp Dewpoint Dewpoint Depression Visibility Wind Speed Wind Dir Waves Ship Positions

Coral Bay

Last reported at 2018-Feb-17 21:23 UTC. Time now 2018-Feb-19 05:59 UTC.
Position N 27°40' W 094°22'.

Length 212 m; draft 9 m.

Type: Ship (hazmat cat D). MMSI: 636017218.

Date/timePositionNaut miles runAvg speedWind from/ knotsBaromVisibWave heightAir tempDewpointWater temp
2018-Feb-17 21:23N 27°40' W 094°22'919.0
2018-Feb-17 20:54N 27°48' W 094°25'7119.1
2018-Feb-17 17:12N 28°48' W 095°09'13 1.5
2018-Feb-17 08:38N 28°57' W 095°20'0 0.0
2018-Feb-17 08:14N 28°57' W 095°20'0 0.0
2018-Feb-17 07:59N 28°57' W 095°20'0 0.0
2018-Feb-17 07:29N 28°57' W 095°20'0 0.0
2018-Feb-17 03:26N 28°57' W 095°20'0 0.0
2018-Feb-17 02:47N 28°57' W 095°20'0 0.0
2018-Feb-17 02:29N 28°57' W 095°20'0 0.0
2018-Feb-17 01:56N 28°57' W 095°20'0 0.0
2018-Feb-17 01:29N 28°57' W 095°20'0 0.0
2018-Feb-17 00:53N 28°57' W 095°20'0 0.0
2018-Feb-17 00:29N 28°57' W 095°20'0 0.0
2018-Feb-16 23:59N 28°57' W 095°20'0 0.0
2018-Feb-16 23:14N 28°57' W 095°20'0 0.0
2018-Feb-16 22:53N 28°57' W 095°20'0 0.0
2018-Feb-16 14:17N 28°57' W 095°20'0 0.0
2018-Feb-16 12:41N 28°57' W 095°20'0 0.0
2018-Feb-16 08:23N 28°57' W 095°20'0 0.0
2018-Feb-16 07:56N 28°57' W 095°20'0 0.0
2018-Feb-16 07:26N 28°57' W 095°20'0 0.0
2018-Feb-16 06:59N 28°57' W 095°20'0 0.0
2018-Feb-16 06:29N 28°57' W 095°20'0 0.0
2018-Feb-16 05:59N 28°57' W 095°20'0 0.0
2018-Feb-16 05:29N 28°57' W 095°20'0 0.0
2018-Feb-16 04:53N 28°57' W 095°20'0 0.0
2018-Feb-16 04:29N 28°57' W 095°20'0 0.0
2018-Feb-16 03:59N 28°57' W 095°20'0 0.0
2018-Feb-16 03:29N 28°57' W 095°20'0 0.0
2018-Feb-16 02:59N 28°57' W 095°20'0 0.0
2018-Feb-16 02:29N 28°57' W 095°20'0 0.0
2018-Feb-16 01:59N 28°57' W 095°20'0 0.0
2018-Feb-16 01:26N 28°57' W 095°20'0 0.0
2018-Feb-16 00:59N 28°57' W 095°20'0 0.0
2018-Feb-16 00:20N 28°57' W 095°20'0 0.0
2018-Feb-15 22:59N 28°57' W 095°20'0 0.0
2018-Feb-15 22:29N 28°57' W 095°20'4 1.0
2018-Feb-15 18:34N 28°54' W 095°16'1 3.4
2018-Feb-15 18:19N 28°53' W 095°16'2 5.6
2018-Feb-15 17:54N 28°52' W 095°13'4 0.6
2018-Feb-15 11:00N 28°50' W 095°09'2010.1
2018-Feb-15 09:01N 28°34' W 094°55'113.2
2018-Feb-15 08:57N 28°34' W 094°54'713.2
2018-Feb-15 08:26N 28°28' W 094°49'1813.1
2018-Feb-15 07:02N 28°15' W 094°35'113.1
2018-Feb-15 06:59N 28°14' W 094°34'713.4
2018-Feb-15 06:27N 28°09' W 094°29'  

Dump ship's entire track history